sensor_id;sensor_type;location;lat;lon;timestamp;P1;durP1;ratioP1;P2;durP2;ratioP2
15603;SDS011;7902;49.042;9.092;2023-05-14T00:02:15;13.73;;;3.60;;
15603;SDS011;7902;49.042;9.092;2023-05-14T00:04:41;14.07;;;3.77;;
15603;SDS011;7902;49.042;9.092;2023-05-14T00:07:07;32.80;;;13.33;;
15603;SDS011;7902;49.042;9.092;2023-05-14T00:09:33;27.40;;;10.80;;
15603;SDS011;7902;49.042;9.092;2023-05-14T00:11:59;30.00;;;10.97;;
15603;SDS011;7902;49.042;9.092;2023-05-14T00:14:25;15.77;;;5.50;;
15603;SDS011;7902;49.042;9.092;2023-05-14T00:16:51;14.90;;;4.43;;
15603;SDS011;7902;49.042;9.092;2023-05-14T00:19:17;22.77;;;3.67;;
15603;SDS011;7902;49.042;9.092;2023-05-14T00:21:43;13.00;;;3.80;;
15603;SDS011;7902;49.042;9.092;2023-05-14T00:24:09;14.77;;;3.70;;
15603;SDS011;7902;49.042;9.092;2023-05-14T00:26:35;13.47;;;3.10;;
15603;SDS011;7902;49.042;9.092;2023-05-14T00:29:01;12.97;;;3.67;;
15603;SDS011;7902;49.042;9.092;2023-05-14T00:31:27;13.13;;;3.20;;
15603;SDS011;7902;49.042;9.092;2023-05-14T00:33:52;14.53;;;3.80;;
15603;SDS011;7902;49.042;9.092;2023-05-14T00:36:18;13.10;;;3.60;;
15603;SDS011;7902;49.042;9.092;2023-05-14T00:38:44;12.07;;;3.67;;
15603;SDS011;7902;49.042;9.092;2023-05-14T00:41:10;12.23;;;3.90;;
15603;SDS011;7902;49.042;9.092;2023-05-14T00:43:36;22.83;;;7.70;;
15603;SDS011;7902;49.042;9.092;2023-05-14T00:46:02;13.80;;;4.57;;
15603;SDS011;7902;49.042;9.092;2023-05-14T00:48:28;24.70;;;9.77;;
15603;SDS011;7902;49.042;9.092;2023-05-14T00:50:54;17.40;;;6.47;;
15603;SDS011;7902;49.042;9.092;2023-05-14T00:53:20;13.37;;;4.17;;
15603;SDS011;7902;49.042;9.092;2023-05-14T00:55:47;18.23;;;3.77;;
15603;SDS011;7902;49.042;9.092;2023-05-14T00:58:14;13.77;;;3.47;;
15603;SDS011;7902;49.042;9.092;2023-05-14T01:00:41;15.53;;;3.57;;
15603;SDS011;7902;49.042;9.092;2023-05-14T01:03:07;12.43;;;3.30;;
15603;SDS011;7902;49.042;9.092;2023-05-14T01:05:46;16.97;;;3.50;;
15603;SDS011;7902;49.042;9.092;2023-05-14T01:08:23;13.43;;;3.07;;
15603;SDS011;7902;49.042;9.092;2023-05-14T01:10:59;12.03;;;3.30;;
15603;SDS011;7902;49.042;9.092;2023-05-14T01:13:46;12.03;;;3.03;;
15603;SDS011;7902;49.042;9.092;2023-05-14T01:16:34;12.70;;;3.57;;
15603;SDS011;7902;49.042;9.092;2023-05-14T01:19:06;11.40;;;3.30;;
15603;SDS011;7902;49.042;9.092;2023-05-14T01:21:41;14.40;;;5.10;;
15603;SDS011;7902;49.042;9.092;2023-05-14T01:24:08;18.73;;;7.00;;
15603;SDS011;7902;49.042;9.092;2023-05-14T01:26:34;13.53;;;4.40;;
15603;SDS011;7902;49.042;9.092;2023-05-14T01:29:03;13.40;;;3.10;;
15603;SDS011;7902;49.042;9.092;2023-05-14T01:31:38;11.60;;;3.00;;
15603;SDS011;7902;49.042;9.092;2023-05-14T01:34:07;11.80;;;3.00;;
15603;SDS011;7902;49.042;9.092;2023-05-14T01:36:33;13.37;;;3.57;;
15603;SDS011;7902;49.042;9.092;2023-05-14T01:39:00;12.80;;;3.40;;
15603;SDS011;7902;49.042;9.092;2023-05-14T01:41:28;13.27;;;3.53;;
15603;SDS011;7902;49.042;9.092;2023-05-14T01:43:55;13.40;;;3.37;;
15603;SDS011;7902;49.042;9.092;2023-05-14T01:46:21;12.60;;;3.00;;
15603;SDS011;7902;49.042;9.092;2023-05-14T01:48:49;12.67;;;3.47;;
15603;SDS011;7902;49.042;9.092;2023-05-14T01:51:15;12.00;;;3.77;;
15603;SDS011;7902;49.042;9.092;2023-05-14T01:53:41;19.10;;;3.47;;
15603;SDS011;7902;49.042;9.092;2023-05-14T01:56:07;11.40;;;2.90;;
15603;SDS011;7902;49.042;9.092;2023-05-14T01:58:33;14.93;;;3.50;;
15603;SDS011;7902;49.042;9.092;2023-05-14T02:00:59;13.00;;;3.30;;
15603;SDS011;7902;49.042;9.092;2023-05-14T02:03:25;13.17;;;3.80;;
15603;SDS011;7902;49.042;9.092;2023-05-14T02:05:50;11.17;;;3.17;;
15603;SDS011;7902;49.042;9.092;2023-05-14T02:08:16;11.57;;;3.20;;
15603;SDS011;7902;49.042;9.092;2023-05-14T02:10:42;12.27;;;3.37;;
15603;SDS011;7902;49.042;9.092;2023-05-14T02:13:08;13.83;;;3.57;;
15603;SDS011;7902;49.042;9.092;2023-05-14T02:15:34;13.53;;;3.23;;
15603;SDS011;7902;49.042;9.092;2023-05-14T02:18:00;12.40;;;3.80;;
15603;SDS011;7902;49.042;9.092;2023-05-14T02:20:26;13.10;;;3.60;;
15603;SDS011;7902;49.042;9.092;2023-05-14T02:22:52;14.90;;;3.40;;
15603;SDS011;7902;49.042;9.092;2023-05-14T02:25:18;11.93;;;3.93;;
15603;SDS011;7902;49.042;9.092;2023-05-14T02:27:43;11.23;;;3.33;;
15603;SDS011;7902;49.042;9.092;2023-05-14T02:30:10;12.40;;;3.47;;
15603;SDS011;7902;49.042;9.092;2023-05-14T02:32:36;13.80;;;3.57;;
15603;SDS011;7902;49.042;9.092;2023-05-14T02:35:01;11.80;;;3.47;;
15603;SDS011;7902;49.042;9.092;2023-05-14T02:37:27;13.23;;;3.93;;
15603;SDS011;7902;49.042;9.092;2023-05-14T02:39:53;12.33;;;3.87;;
15603;SDS011;7902;49.042;9.092;2023-05-14T02:42:19;11.80;;;3.13;;
15603;SDS011;7902;49.042;9.092;2023-05-14T02:44:46;12.30;;;3.60;;
15603;SDS011;7902;49.042;9.092;2023-05-14T02:47:11;12.30;;;3.30;;
15603;SDS011;7902;49.042;9.092;2023-05-14T02:49:37;13.40;;;3.60;;
15603;SDS011;7902;49.042;9.092;2023-05-14T02:52:04;14.33;;;3.60;;
15603;SDS011;7902;49.042;9.092;2023-05-14T02:54:30;13.07;;;3.70;;
15603;SDS011;7902;49.042;9.092;2023-05-14T02:56:56;11.97;;;3.63;;
15603;SDS011;7902;49.042;9.092;2023-05-14T02:59:23;13.07;;;4.13;;
15603;SDS011;7902;49.042;9.092;2023-05-14T03:01:49;12.13;;;3.63;;
15603;SDS011;7902;49.042;9.092;2023-05-14T03:04:15;13.97;;;3.83;;
15603;SDS011;7902;49.042;9.092;2023-05-14T03:06:41;12.37;;;3.70;;
15603;SDS011;7902;49.042;9.092;2023-05-14T03:09:07;13.60;;;3.90;;
15603;SDS011;7902;49.042;9.092;2023-05-14T03:11:33;16.13;;;5.20;;
15603;SDS011;7902;49.042;9.092;2023-05-14T03:13:59;14.17;;;3.93;;
15603;SDS011;7902;49.042;9.092;2023-05-14T03:16:25;12.30;;;3.87;;
15603;SDS011;7902;49.042;9.092;2023-05-14T03:18:51;13.43;;;4.10;;
15603;SDS011;7902;49.042;9.092;2023-05-14T03:21:17;14.60;;;4.13;;
15603;SDS011;7902;49.042;9.092;2023-05-14T03:23:43;12.60;;;3.97;;
15603;SDS011;7902;49.042;9.092;2023-05-14T03:26:09;15.70;;;4.07;;
15603;SDS011;7902;49.042;9.092;2023-05-14T03:28:35;12.87;;;3.97;;
15603;SDS011;7902;49.042;9.092;2023-05-14T03:31:01;12.70;;;3.97;;
15603;SDS011;7902;49.042;9.092;2023-05-14T03:33:27;12.77;;;4.13;;
15603;SDS011;7902;49.042;9.092;2023-05-14T03:35:53;14.00;;;4.30;;
15603;SDS011;7902;49.042;9.092;2023-05-14T03:38:19;14.40;;;4.47;;
15603;SDS011;7902;49.042;9.092;2023-05-14T03:40:45;14.83;;;5.10;;
15603;SDS011;7902;49.042;9.092;2023-05-14T03:43:11;13.40;;;4.07;;
15603;SDS011;7902;49.042;9.092;2023-05-14T03:45:37;32.03;;;4.67;;
15603;SDS011;7902;49.042;9.092;2023-05-14T03:48:03;14.73;;;4.57;;
15603;SDS011;7902;49.042;9.092;2023-05-14T03:50:29;14.27;;;4.27;;
15603;SDS011;7902;49.042;9.092;2023-05-14T03:52:55;15.97;;;5.03;;
15603;SDS011;7902;49.042;9.092;2023-05-14T03:55:21;13.30;;;4.87;;
15603;SDS011;7902;49.042;9.092;2023-05-14T03:57:47;17.03;;;4.60;;
15603;SDS011;7902;49.042;9.092;2023-05-14T04:00:13;15.10;;;4.50;;
15603;SDS011;7902;49.042;9.092;2023-05-14T04:02:39;14.93;;;4.40;;
15603;SDS011;7902;49.042;9.092;2023-05-14T04:05:05;12.77;;;4.80;;
15603;SDS011;7902;49.042;9.092;2023-05-14T04:07:31;13.40;;;4.53;;
15603;SDS011;7902;49.042;9.092;2023-05-14T04:09:57;13.27;;;4.43;;
15603;SDS011;7902;49.042;9.092;2023-05-14T04:12:24;28.60;;;4.70;;
15603;SDS011;7902;49.042;9.092;2023-05-14T04:14:51;16.33;;;4.00;;
15603;SDS011;7902;49.042;9.092;2023-05-14T04:17:17;14.40;;;4.60;;
15603;SDS011;7902;49.042;9.092;2023-05-14T04:19:43;13.20;;;4.70;;
15603;SDS011;7902;49.042;9.092;2023-05-14T04:22:09;14.53;;;4.60;;
15603;SDS011;7902;49.042;9.092;2023-05-14T04:24:35;17.33;;;4.20;;
15603;SDS011;7902;49.042;9.092;2023-05-14T04:27:01;15.33;;;4.70;;
15603;SDS011;7902;49.042;9.092;2023-05-14T04:29:26;14.03;;;4.70;;
15603;SDS011;7902;49.042;9.092;2023-05-14T04:31:52;16.57;;;4.90;;
15603;SDS011;7902;49.042;9.092;2023-05-14T04:34:18;15.67;;;3.90;;
15603;SDS011;7902;49.042;9.092;2023-05-14T04:36:44;12.93;;;4.30;;
15603;SDS011;7902;49.042;9.092;2023-05-14T04:39:10;13.23;;;4.73;;
15603;SDS011;7902;49.042;9.092;2023-05-14T04:41:37;15.73;;;4.90;;
15603;SDS011;7902;49.042;9.092;2023-05-14T04:44:03;15.03;;;4.80;;
15603;SDS011;7902;49.042;9.092;2023-05-14T04:46:29;16.40;;;4.90;;
15603;SDS011;7902;49.042;9.092;2023-05-14T04:48:55;13.23;;;5.00;;
15603;SDS011;7902;49.042;9.092;2023-05-14T04:51:21;13.30;;;4.50;;
15603;SDS011;7902;49.042;9.092;2023-05-14T04:53:48;12.70;;;4.40;;
15603;SDS011;7902;49.042;9.092;2023-05-14T04:56:14;12.50;;;4.20;;
15603;SDS011;7902;49.042;9.092;2023-05-14T04:58:40;13.73;;;4.40;;
15603;SDS011;7902;49.042;9.092;2023-05-14T05:01:05;13.90;;;4.67;;
15603;SDS011;7902;49.042;9.092;2023-05-14T05:03:31;13.20;;;4.40;;
15603;SDS011;7902;49.042;9.092;2023-05-14T05:05:57;12.87;;;4.37;;
15603;SDS011;7902;49.042;9.092;2023-05-14T05:08:23;13.00;;;4.20;;
15603;SDS011;7902;49.042;9.092;2023-05-14T05:10:50;14.37;;;4.70;;
15603;SDS011;7902;49.042;9.092;2023-05-14T05:13:16;17.00;;;5.07;;
15603;SDS011;7902;49.042;9.092;2023-05-14T05:15:42;14.63;;;4.10;;
15603;SDS011;7902;49.042;9.092;2023-05-14T05:18:08;15.47;;;4.10;;
15603;SDS011;7902;49.042;9.092;2023-05-14T05:20:34;12.60;;;4.10;;
15603;SDS011;7902;49.042;9.092;2023-05-14T05:23:00;17.20;;;4.77;;
15603;SDS011;7902;49.042;9.092;2023-05-14T05:25:26;14.60;;;4.93;;
15603;SDS011;7902;49.042;9.092;2023-05-14T05:27:52;16.50;;;5.70;;
15603;SDS011;7902;49.042;9.092;2023-05-14T05:30:18;13.27;;;4.53;;
15603;SDS011;7902;49.042;9.092;2023-05-14T05:32:44;14.60;;;4.80;;
15603;SDS011;7902;49.042;9.092;2023-05-14T05:35:10;12.40;;;4.33;;
15603;SDS011;7902;49.042;9.092;2023-05-14T05:37:36;19.50;;;4.93;;
15603;SDS011;7902;49.042;9.092;2023-05-14T05:40:02;14.70;;;4.40;;
15603;SDS011;7902;49.042;9.092;2023-05-14T05:42:28;12.90;;;4.20;;
15603;SDS011;7902;49.042;9.092;2023-05-14T05:44:54;15.13;;;5.00;;
15603;SDS011;7902;49.042;9.092;2023-05-14T05:47:20;16.33;;;4.70;;
15603;SDS011;7902;49.042;9.092;2023-05-14T05:49:46;13.23;;;4.63;;
15603;SDS011;7902;49.042;9.092;2023-05-14T05:52:12;13.90;;;4.50;;
15603;SDS011;7902;49.042;9.092;2023-05-14T05:54:38;17.90;;;4.73;;
15603;SDS011;7902;49.042;9.092;2023-05-14T05:57:04;13.90;;;4.83;;
15603;SDS011;7902;49.042;9.092;2023-05-14T05:59:30;13.50;;;4.70;;
15603;SDS011;7902;49.042;9.092;2023-05-14T06:01:56;14.90;;;4.67;;
15603;SDS011;7902;49.042;9.092;2023-05-14T06:04:22;13.30;;;4.37;;
15603;SDS011;7902;49.042;9.092;2023-05-14T06:06:48;16.73;;;4.70;;
15603;SDS011;7902;49.042;9.092;2023-05-14T06:09:14;15.67;;;4.27;;
15603;SDS011;7902;49.042;9.092;2023-05-14T06:11:40;13.30;;;4.30;;
15603;SDS011;7902;49.042;9.092;2023-05-14T06:14:06;12.97;;;4.43;;
15603;SDS011;7902;49.042;9.092;2023-05-14T06:16:32;13.93;;;4.70;;
15603;SDS011;7902;49.042;9.092;2023-05-14T06:18:58;30.93;;;4.73;;
15603;SDS011;7902;49.042;9.092;2023-05-14T06:21:24;15.50;;;5.13;;
15603;SDS011;7902;49.042;9.092;2023-05-14T06:23:50;15.60;;;5.23;;
15603;SDS011;7902;49.042;9.092;2023-05-14T06:26:15;15.97;;;4.87;;
15603;SDS011;7902;49.042;9.092;2023-05-14T06:28:41;15.43;;;4.60;;
15603;SDS011;7902;49.042;9.092;2023-05-14T06:31:10;13.87;;;4.20;;
15603;SDS011;7902;49.042;9.092;2023-05-14T06:33:36;14.07;;;4.47;;
15603;SDS011;7902;49.042;9.092;2023-05-14T06:36:03;15.23;;;5.30;;
15603;SDS011;7902;49.042;9.092;2023-05-14T06:38:30;13.40;;;4.53;;
15603;SDS011;7902;49.042;9.092;2023-05-14T06:40:56;14.37;;;4.70;;
15603;SDS011;7902;49.042;9.092;2023-05-14T06:43:22;13.97;;;4.70;;
15603;SDS011;7902;49.042;9.092;2023-05-14T06:45:48;16.97;;;5.43;;
15603;SDS011;7902;49.042;9.092;2023-05-14T06:48:14;14.87;;;5.00;;
15603;SDS011;7902;49.042;9.092;2023-05-14T06:50:43;15.63;;;4.43;;
15603;SDS011;7902;49.042;9.092;2023-05-14T06:53:09;14.03;;;5.13;;
15603;SDS011;7902;49.042;9.092;2023-05-14T06:55:35;15.93;;;5.83;;
15603;SDS011;7902;49.042;9.092;2023-05-14T06:58:01;14.50;;;4.80;;
15603;SDS011;7902;49.042;9.092;2023-05-14T07:00:29;15.80;;;5.67;;
15603;SDS011;7902;49.042;9.092;2023-05-14T07:02:55;15.87;;;5.50;;
15603;SDS011;7902;49.042;9.092;2023-05-14T07:05:20;17.50;;;5.10;;
15603;SDS011;7902;49.042;9.092;2023-05-14T07:07:46;16.53;;;5.17;;
15603;SDS011;7902;49.042;9.092;2023-05-14T07:10:12;14.97;;;5.27;;
15603;SDS011;7902;49.042;9.092;2023-05-14T07:12:38;15.60;;;5.20;;
15603;SDS011;7902;49.042;9.092;2023-05-14T07:15:04;15.00;;;5.23;;
15603;SDS011;7902;49.042;9.092;2023-05-14T07:17:31;16.50;;;5.63;;
15603;SDS011;7902;49.042;9.092;2023-05-14T07:19:56;16.00;;;5.40;;
15603;SDS011;7902;49.042;9.092;2023-05-14T07:22:22;17.57;;;4.97;;
15603;SDS011;7902;49.042;9.092;2023-05-14T07:24:48;16.83;;;5.90;;
15603;SDS011;7902;49.042;9.092;2023-05-14T07:27:14;13.90;;;4.60;;
15603;SDS011;7902;49.042;9.092;2023-05-14T07:29:41;15.17;;;4.93;;
15603;SDS011;7902;49.042;9.092;2023-05-14T07:32:08;13.83;;;4.70;;
15603;SDS011;7902;49.042;9.092;2023-05-14T07:34:34;17.73;;;4.50;;
15603;SDS011;7902;49.042;9.092;2023-05-14T07:37:00;15.97;;;5.87;;
15603;SDS011;7902;49.042;9.092;2023-05-14T07:39:26;16.10;;;5.60;;
15603;SDS011;7902;49.042;9.092;2023-05-14T07:41:52;18.30;;;4.77;;
15603;SDS011;7902;49.042;9.092;2023-05-14T07:44:19;18.93;;;5.03;;
15603;SDS011;7902;49.042;9.092;2023-05-14T07:46:45;18.87;;;6.60;;
15603;SDS011;7902;49.042;9.092;2023-05-14T07:49:12;15.73;;;5.00;;
15603;SDS011;7902;49.042;9.092;2023-05-14T07:51:38;14.00;;;4.50;;
15603;SDS011;7902;49.042;9.092;2023-05-14T07:54:03;19.30;;;6.40;;
15603;SDS011;7902;49.042;9.092;2023-05-14T07:56:29;14.40;;;5.40;;
15603;SDS011;7902;49.042;9.092;2023-05-14T07:58:55;14.87;;;5.27;;
15603;SDS011;7902;49.042;9.092;2023-05-14T08:01:21;16.20;;;6.30;;
15603;SDS011;7902;49.042;9.092;2023-05-14T08:03:47;16.07;;;5.13;;
15603;SDS011;7902;49.042;9.092;2023-05-14T08:06:13;22.53;;;5.90;;
15603;SDS011;7902;49.042;9.092;2023-05-14T08:08:39;15.30;;;5.27;;
15603;SDS011;7902;49.042;9.092;2023-05-14T08:11:05;17.93;;;6.33;;
15603;SDS011;7902;49.042;9.092;2023-05-14T08:13:31;15.60;;;5.43;;
15603;SDS011;7902;49.042;9.092;2023-05-14T08:15:57;16.83;;;5.20;;
15603;SDS011;7902;49.042;9.092;2023-05-14T08:18:23;16.47;;;5.13;;
15603;SDS011;7902;49.042;9.092;2023-05-14T08:20:49;18.27;;;5.37;;
15603;SDS011;7902;49.042;9.092;2023-05-14T08:23:15;15.17;;;5.40;;
15603;SDS011;7902;49.042;9.092;2023-05-14T08:25:41;17.30;;;5.90;;
15603;SDS011;7902;49.042;9.092;2023-05-14T08:28:07;18.90;;;4.60;;
15603;SDS011;7902;49.042;9.092;2023-05-14T08:30:33;19.50;;;4.93;;
15603;SDS011;7902;49.042;9.092;2023-05-14T08:32:59;16.77;;;5.70;;
15603;SDS011;7902;49.042;9.092;2023-05-14T08:35:25;22.13;;;6.03;;
15603;SDS011;7902;49.042;9.092;2023-05-14T08:37:51;15.73;;;4.70;;
15603;SDS011;7902;49.042;9.092;2023-05-14T08:40:17;15.53;;;4.80;;
15603;SDS011;7902;49.042;9.092;2023-05-14T08:42:43;19.67;;;5.53;;
15603;SDS011;7902;49.042;9.092;2023-05-14T08:47:53;15.63;;;4.80;;
15603;SDS011;7902;49.042;9.092;2023-05-14T08:50:20;16.97;;;5.40;;
15603;SDS011;7902;49.042;9.092;2023-05-14T08:52:46;14.50;;;4.53;;
15603;SDS011;7902;49.042;9.092;2023-05-14T08:55:13;17.10;;;5.70;;
15603;SDS011;7902;49.042;9.092;2023-05-14T08:57:39;21.23;;;6.10;;
15603;SDS011;7902;49.042;9.092;2023-05-14T09:00:06;20.73;;;5.70;;
15603;SDS011;7902;49.042;9.092;2023-05-14T09:02:38;21.13;;;5.30;;
15603;SDS011;7902;49.042;9.092;2023-05-14T09:05:05;16.10;;;5.53;;
15603;SDS011;7902;49.042;9.092;2023-05-14T09:07:34;16.17;;;5.37;;
15603;SDS011;7902;49.042;9.092;2023-05-14T09:10:00;21.97;;;5.50;;
15603;SDS011;7902;49.042;9.092;2023-05-14T09:12:27;17.73;;;5.43;;
15603;SDS011;7902;49.042;9.092;2023-05-14T09:14:53;20.50;;;5.07;;
15603;SDS011;7902;49.042;9.092;2023-05-14T09:17:19;17.33;;;5.33;;
15603;SDS011;7902;49.042;9.092;2023-05-14T09:19:45;17.27;;;5.17;;
15603;SDS011;7902;49.042;9.092;2023-05-14T09:22:14;17.83;;;5.70;;
15603;SDS011;7902;49.042;9.092;2023-05-14T09:24:41;16.43;;;5.30;;
15603;SDS011;7902;49.042;9.092;2023-05-14T09:27:08;18.90;;;4.80;;
15603;SDS011;7902;49.042;9.092;2023-05-14T09:29:40;20.03;;;5.90;;
15603;SDS011;7902;49.042;9.092;2023-05-14T09:32:06;15.03;;;4.90;;
15603;SDS011;7902;49.042;9.092;2023-05-14T09:34:34;17.13;;;5.73;;
15603;SDS011;7902;49.042;9.092;2023-05-14T09:37:04;17.27;;;4.60;;
15603;SDS011;7902;49.042;9.092;2023-05-14T09:39:32;24.23;;;6.83;;
15603;SDS011;7902;49.042;9.092;2023-05-14T09:42:00;16.63;;;5.40;;
15603;SDS011;7902;49.042;9.092;2023-05-14T09:44:27;23.40;;;4.77;;
15603;SDS011;7902;49.042;9.092;2023-05-14T09:46:53;18.70;;;4.97;;
15603;SDS011;7902;49.042;9.092;2023-05-14T09:49:23;16.57;;;5.10;;
15603;SDS011;7902;49.042;9.092;2023-05-14T09:51:48;17.60;;;5.27;;
15603;SDS011;7902;49.042;9.092;2023-05-14T09:54:15;18.03;;;5.30;;
15603;SDS011;7902;49.042;9.092;2023-05-14T09:56:41;16.17;;;4.80;;
15603;SDS011;7902;49.042;9.092;2023-05-14T09:59:07;18.17;;;4.30;;
15603;SDS011;7902;49.042;9.092;2023-05-14T10:01:33;17.63;;;5.40;;
15603;SDS011;7902;49.042;9.092;2023-05-14T10:04:05;19.17;;;4.60;;
15603;SDS011;7902;49.042;9.092;2023-05-14T10:06:34;16.63;;;5.03;;
15603;SDS011;7902;49.042;9.092;2023-05-14T10:09:02;20.30;;;4.50;;
15603;SDS011;7902;49.042;9.092;2023-05-14T10:11:31;14.53;;;4.20;;
15603;SDS011;7902;49.042;9.092;2023-05-14T10:16:46;18.17;;;4.37;;
15603;SDS011;7902;49.042;9.092;2023-05-14T10:19:15;16.97;;;4.47;;
15603;SDS011;7902;49.042;9.092;2023-05-14T10:21:52;16.60;;;4.57;;
15603;SDS011;7902;49.042;9.092;2023-05-14T10:24:20;15.77;;;4.40;;
15603;SDS011;7902;49.042;9.092;2023-05-14T10:26:48;15.53;;;4.30;;
15603;SDS011;7902;49.042;9.092;2023-05-14T10:29:14;14.23;;;3.90;;
15603;SDS011;7902;49.042;9.092;2023-05-14T10:34:31;17.43;;;4.20;;
15603;SDS011;7902;49.042;9.092;2023-05-14T10:37:01;14.63;;;4.07;;
15603;SDS011;7902;49.042;9.092;2023-05-14T10:39:40;17.60;;;4.47;;
15603;SDS011;7902;49.042;9.092;2023-05-14T10:42:23;16.03;;;4.40;;
15603;SDS011;7902;49.042;9.092;2023-05-14T10:44:55;16.43;;;4.13;;
15603;SDS011;7902;49.042;9.092;2023-05-14T10:47:27;18.07;;;4.60;;
15603;SDS011;7902;49.042;9.092;2023-05-14T10:49:58;15.77;;;4.00;;
15603;SDS011;7902;49.042;9.092;2023-05-14T10:52:26;16.60;;;3.40;;
15603;SDS011;7902;49.042;9.092;2023-05-14T10:54:58;17.07;;;4.57;;
15603;SDS011;7902;49.042;9.092;2023-05-14T10:57:26;16.40;;;4.20;;
15603;SDS011;7902;49.042;9.092;2023-05-14T10:59:55;16.90;;;4.03;;
15603;SDS011;7902;49.042;9.092;2023-05-14T11:02:24;18.63;;;4.80;;
15603;SDS011;7902;49.042;9.092;2023-05-14T11:05:01;24.20;;;3.90;;
15603;SDS011;7902;49.042;9.092;2023-05-14T11:07:29;15.97;;;4.17;;
15603;SDS011;7902;49.042;9.092;2023-05-14T11:09:58;17.33;;;4.33;;
15603;SDS011;7902;49.042;9.092;2023-05-14T11:12:29;15.47;;;4.00;;
15603;SDS011;7902;49.042;9.092;2023-05-14T11:14:58;17.07;;;4.77;;
15603;SDS011;7902;49.042;9.092;2023-05-14T11:17:25;17.40;;;4.20;;
15603;SDS011;7902;49.042;9.092;2023-05-14T11:19:53;15.53;;;3.93;;
15603;SDS011;7902;49.042;9.092;2023-05-14T11:22:19;15.07;;;3.37;;
15603;SDS011;7902;49.042;9.092;2023-05-14T11:24:46;15.40;;;3.40;;
15603;SDS011;7902;49.042;9.092;2023-05-14T11:27:12;16.70;;;3.47;;
15603;SDS011;7902;49.042;9.092;2023-05-14T11:29:38;15.57;;;3.60;;
15603;SDS011;7902;49.042;9.092;2023-05-14T11:32:08;18.07;;;4.57;;
15603;SDS011;7902;49.042;9.092;2023-05-14T11:34:34;13.80;;;3.30;;
15603;SDS011;7902;49.042;9.092;2023-05-14T11:37:05;19.70;;;4.00;;
15603;SDS011;7902;49.042;9.092;2023-05-14T11:39:32;18.60;;;4.27;;
15603;SDS011;7902;49.042;9.092;2023-05-14T11:42:01;15.93;;;4.13;;
15603;SDS011;7902;49.042;9.092;2023-05-14T11:44:30;17.43;;;3.63;;
15603;SDS011;7902;49.042;9.092;2023-05-14T11:46:57;14.23;;;3.50;;
15603;SDS011;7902;49.042;9.092;2023-05-14T11:49:24;15.50;;;3.80;;
15603;SDS011;7902;49.042;9.092;2023-05-14T11:52:03;19.50;;;4.07;;
15603;SDS011;7902;49.042;9.092;2023-05-14T11:54:30;20.10;;;3.90;;
15603;SDS011;7902;49.042;9.092;2023-05-14T11:56:58;15.10;;;3.67;;
15603;SDS011;7902;49.042;9.092;2023-05-14T11:59:27;17.27;;;3.90;;
15603;SDS011;7902;49.042;9.092;2023-05-14T12:01:55;22.50;;;4.70;;
15603;SDS011;7902;49.042;9.092;2023-05-14T12:04:22;21.93;;;5.23;;
15603;SDS011;7902;49.042;9.092;2023-05-14T12:06:48;16.30;;;3.60;;
15603;SDS011;7902;49.042;9.092;2023-05-14T12:09:18;21.53;;;2.87;;
15603;SDS011;7902;49.042;9.092;2023-05-14T12:11:45;22.57;;;4.60;;
15603;SDS011;7902;49.042;9.092;2023-05-14T12:14:21;15.73;;;3.50;;
15603;SDS011;7902;49.042;9.092;2023-05-14T12:16:49;16.23;;;3.40;;
15603;SDS011;7902;49.042;9.092;2023-05-14T12:19:17;16.53;;;3.63;;
15603;SDS011;7902;49.042;9.092;2023-05-14T12:21:45;15.23;;;2.83;;
15603;SDS011;7902;49.042;9.092;2023-05-14T12:24:14;14.17;;;3.00;;
15603;SDS011;7902;49.042;9.092;2023-05-14T12:26:46;20.93;;;3.23;;
15603;SDS011;7902;49.042;9.092;2023-05-14T12:29:13;21.63;;;3.60;;
15603;SDS011;7902;49.042;9.092;2023-05-14T12:31:46;16.20;;;3.00;;
15603;SDS011;7902;49.042;9.092;2023-05-14T12:34:13;13.20;;;2.67;;
15603;SDS011;7902;49.042;9.092;2023-05-14T12:36:40;21.77;;;3.17;;
15603;SDS011;7902;49.042;9.092;2023-05-14T12:39:07;16.97;;;2.80;;
15603;SDS011;7902;49.042;9.092;2023-05-14T12:41:34;14.20;;;3.00;;
15603;SDS011;7902;49.042;9.092;2023-05-14T12:44:01;13.17;;;2.50;;
15603;SDS011;7902;49.042;9.092;2023-05-14T12:46:28;14.93;;;2.67;;
15603;SDS011;7902;49.042;9.092;2023-05-14T12:48:54;13.73;;;2.50;;
15603;SDS011;7902;49.042;9.092;2023-05-14T12:51:21;18.83;;;3.00;;
15603;SDS011;7902;49.042;9.092;2023-05-14T12:53:47;13.50;;;2.50;;
15603;SDS011;7902;49.042;9.092;2023-05-14T12:56:13;13.57;;;2.50;;
15603;SDS011;7902;49.042;9.092;2023-05-14T12:58:39;16.77;;;2.70;;
15603;SDS011;7902;49.042;9.092;2023-05-14T13:01:05;13.60;;;2.63;;
15603;SDS011;7902;49.042;9.092;2023-05-14T13:03:32;14.30;;;2.63;;
15603;SDS011;7902;49.042;9.092;2023-05-14T13:05:58;15.73;;;3.07;;
15603;SDS011;7902;49.042;9.092;2023-05-14T13:08:24;17.93;;;3.20;;
15603;SDS011;7902;49.042;9.092;2023-05-14T13:10:51;19.00;;;3.23;;
15603;SDS011;7902;49.042;9.092;2023-05-14T13:13:17;16.73;;;3.00;;
15603;SDS011;7902;49.042;9.092;2023-05-14T13:15:43;20.98;;;3.47;;
15603;SDS011;7902;49.042;9.092;2023-05-14T13:18:14;14.83;;;3.07;;
15603;SDS011;7902;49.042;9.092;2023-05-14T13:20:42;15.07;;;3.20;;
15603;SDS011;7902;49.042;9.092;2023-05-14T13:23:07;13.30;;;2.77;;
15603;SDS011;7902;49.042;9.092;2023-05-14T13:25:34;13.43;;;2.80;;
15603;SDS011;7902;49.042;9.092;2023-05-14T13:28:00;15.10;;;3.13;;
15603;SDS011;7902;49.042;9.092;2023-05-14T13:30:26;14.50;;;2.70;;
15603;SDS011;7902;49.042;9.092;2023-05-14T13:32:52;24.13;;;3.50;;
15603;SDS011;7902;49.042;9.092;2023-05-14T13:35:18;14.68;;;2.60;;
15603;SDS011;7902;49.042;9.092;2023-05-14T13:37:43;13.80;;;2.87;;
15603;SDS011;7902;49.042;9.092;2023-05-14T13:40:10;13.73;;;2.60;;
15603;SDS011;7902;49.042;9.092;2023-05-14T13:42:36;17.50;;;3.13;;
15603;SDS011;7902;49.042;9.092;2023-05-14T13:45:04;13.77;;;2.60;;
15603;SDS011;7902;49.042;9.092;2023-05-14T13:47:31;15.68;;;3.00;;
15603;SDS011;7902;49.042;9.092;2023-05-14T13:49:58;16.70;;;2.83;;
15603;SDS011;7902;49.042;9.092;2023-05-14T13:52:24;15.68;;;3.50;;
15603;SDS011;7902;49.042;9.092;2023-05-14T13:54:51;14.60;;;3.08;;
15603;SDS011;7902;49.042;9.092;2023-05-14T13:57:18;20.65;;;3.22;;
15603;SDS011;7902;49.042;9.092;2023-05-14T13:59:47;13.80;;;2.70;;
15603;SDS011;7902;49.042;9.092;2023-05-14T14:02:13;14.07;;;2.50;;
15603;SDS011;7902;49.042;9.092;2023-05-14T14:04:40;14.18;;;2.38;;
15603;SDS011;7902;49.042;9.092;2023-05-14T14:07:06;18.52;;;2.92;;
15603;SDS011;7902;49.042;9.092;2023-05-14T14:09:32;14.90;;;2.72;;
15603;SDS011;7902;49.042;9.092;2023-05-14T14:12:03;13.98;;;2.40;;
15603;SDS011;7902;49.042;9.092;2023-05-14T14:14:30;14.27;;;2.60;;
15603;SDS011;7902;49.042;9.092;2023-05-14T14:16:56;14.63;;;2.42;;
15603;SDS011;7902;49.042;9.092;2023-05-14T14:19:21;14.57;;;2.47;;
15603;SDS011;7902;49.042;9.092;2023-05-14T14:21:47;13.75;;;1.98;;
15603;SDS011;7902;49.042;9.092;2023-05-14T14:24:13;14.23;;;2.45;;
15603;SDS011;7902;49.042;9.092;2023-05-14T14:26:39;13.40;;;2.42;;
15603;SDS011;7902;49.042;9.092;2023-05-14T14:29:05;13.93;;;2.03;;
15603;SDS011;7902;49.042;9.092;2023-05-14T14:31:31;16.70;;;2.10;;
15603;SDS011;7902;49.042;9.092;2023-05-14T14:33:57;14.48;;;2.53;;
15603;SDS011;7902;49.042;9.092;2023-05-14T14:36:23;13.38;;;2.15;;
15603;SDS011;7902;49.042;9.092;2023-05-14T14:38:49;13.18;;;2.03;;
15603;SDS011;7902;49.042;9.092;2023-05-14T14:41:14;13.73;;;2.10;;
15603;SDS011;7902;49.042;9.092;2023-05-14T14:43:40;13.38;;;2.35;;
15603;SDS011;7902;49.042;9.092;2023-05-14T14:46:07;14.80;;;2.72;;
15603;SDS011;7902;49.042;9.092;2023-05-14T14:48:34;15.63;;;3.25;;
15603;SDS011;7902;49.042;9.092;2023-05-14T14:51:05;18.13;;;2.67;;
15603;SDS011;7902;49.042;9.092;2023-05-14T14:53:32;14.88;;;2.35;;
15603;SDS011;7902;49.042;9.092;2023-05-14T14:55:59;14.02;;;2.90;;